createdAt,value
2022-11-24T00:01:08.161Z,76.10
2022-11-24T00:03:35.318Z,74.68
2022-11-24T00:06:04.912Z,72.85
2022-11-24T00:08:32.048Z,76.28
2022-11-24T00:11:07.925Z,77.32
2022-11-24T00:13:35.602Z,81.20
2022-11-24T00:16:11.008Z,71.15
2022-11-24T00:18:39.905Z,81.80
2022-11-24T00:21:07.572Z,84.80
2022-11-24T00:23:35.689Z,77.38
2022-11-24T00:26:11.482Z,85.45
2022-11-24T00:28:39.960Z,88.13
2022-11-24T00:31:17.519Z,85.28
2022-11-24T00:33:46.420Z,85.53
2022-11-24T00:36:14.246Z,97.25
2022-11-24T00:38:41.641Z,89.47
2022-11-24T00:41:09.380Z,97.10
2022-11-24T00:43:36.364Z,84.00
2022-11-24T00:46:03.840Z,89.63
2022-11-24T00:48:31.060Z,77.47
2022-11-24T00:51:01.017Z,67.65
2022-11-24T00:53:28.436Z,84.80
2022-11-24T00:55:56.155Z,75.93
2022-11-24T00:58:24.340Z,82.13
2022-11-24T01:00:52.817Z,71.82
2022-11-24T01:03:20.771Z,82.22
2022-11-24T01:05:48.661Z,77.72
2022-11-24T01:08:15.701Z,86.63
2022-11-24T01:10:43.098Z,70.53
2022-11-24T01:13:10.039Z,87.82
2022-11-24T01:15:37.685Z,72.40
2022-11-24T01:18:05.232Z,77.25
2022-11-24T01:20:32.605Z,78.82
2022-11-24T01:22:59.585Z,73.68
2022-11-24T01:25:26.834Z,60.35
2022-11-24T01:27:53.816Z,70.57
2022-11-24T01:30:23.153Z,66.70
2022-11-24T01:32:50.208Z,73.40
2022-11-24T01:35:17.764Z,77.95
2022-11-24T01:37:44.769Z,64.00
2022-11-24T01:40:12.401Z,68.90
2022-11-24T01:42:53.209Z,74.20
2022-11-24T01:45:41.160Z,66.97
2022-11-24T01:48:16.512Z,63.90
2022-11-24T01:50:44.251Z,76.35
2022-11-24T01:53:13.171Z,87.20
2022-11-24T01:55:41.474Z,67.10
2022-11-24T01:58:10.996Z,77.03
2022-11-24T02:00:40.906Z,86.97
2022-11-24T02:03:08.633Z,75.53
2022-11-24T02:05:43.230Z,84.68
2022-11-24T02:08:19.163Z,71.38
2022-11-24T02:10:47.418Z,76.38
2022-11-24T02:13:15.720Z,83.80
2022-11-24T02:15:43.220Z,84.35
2022-11-24T02:18:10.506Z,86.90
2022-11-24T02:20:38.218Z,83.55
2022-11-24T02:23:15.781Z,96.55
2022-11-24T02:26:06.708Z,96.50
2022-11-24T02:28:33.879Z,75.32
2022-11-24T02:31:02.162Z,73.95
2022-11-24T02:33:29.716Z,82.70
2022-11-24T02:35:57.104Z,76.43
2022-11-24T02:38:42.287Z,78.95
2022-11-24T02:41:13.592Z,75.13
2022-11-24T02:43:55.529Z,76.60
2022-11-24T02:46:23.177Z,69.15
2022-11-24T02:48:50.306Z,75.70
2022-11-24T02:51:18.238Z,57.15
2022-11-24T02:53:45.332Z,64.50
2022-11-24T02:56:12.902Z,66.63
2022-11-24T02:58:40.019Z,63.17
2022-11-24T03:01:07.291Z,69.72
2022-11-24T03:03:34.277Z,79.47
2022-11-24T03:06:01.522Z,63.35
2022-11-24T03:08:28.479Z,64.68
2022-11-24T03:10:55.681Z,74.65
2022-11-24T03:13:22.656Z,60.55
2022-11-24T03:15:49.921Z,67.88
2022-11-24T03:18:16.888Z,64.35
2022-11-24T03:20:44.394Z,54.13
2022-11-24T03:23:11.909Z,56.30
2022-11-24T03:25:39.851Z,61.15
2022-11-24T03:28:06.837Z,65.78
2022-11-24T03:30:34.094Z,55.92
2022-11-24T03:33:01.159Z,57.55
2022-11-24T03:35:28.514Z,76.72
2022-11-24T03:37:55.489Z,60.88
2022-11-24T03:40:22.969Z,75.75
2022-11-24T03:42:49.925Z,76.57
2022-11-24T03:45:38.479Z,69.35
2022-11-24T03:48:04.477Z,67.30
2022-11-24T03:50:31.727Z,63.05
2022-11-24T03:52:58.666Z,64.55
2022-11-24T03:55:25.899Z,72.78
2022-11-24T03:57:52.880Z,61.45
2022-11-24T04:00:20.296Z,72.88
2022-11-24T04:02:48.351Z,63.72
2022-11-24T04:05:16.007Z,75.63
2022-11-24T04:07:43.066Z,78.45
2022-11-24T04:10:10.582Z,54.35
2022-11-24T04:12:46.814Z,54.92
2022-11-24T04:15:16.920Z,70.78
2022-11-24T04:17:44.348Z,78.35
2022-11-24T04:20:13.350Z,64.60
2022-11-24T04:22:40.607Z,60.65
2022-11-24T04:25:08.800Z,51.60
2022-11-24T04:27:36.888Z,48.20
2022-11-24T04:30:08.142Z,53.40
2022-11-24T04:32:35.399Z,51.08
2022-11-24T04:35:03.804Z,56.45
2022-11-24T04:37:30.795Z,52.90
2022-11-24T04:39:58.041Z,68.85
2022-11-24T04:42:24.962Z,63.55
2022-11-24T04:44:52.247Z,67.18
2022-11-24T04:47:22.889Z,56.95
2022-11-24T04:49:50.785Z,73.30
2022-11-24T04:52:19.661Z,70.20
2022-11-24T04:54:48.100Z,73.40
2022-11-24T04:57:23.634Z,60.42
2022-11-24T04:59:52.717Z,65.35
2022-11-24T05:02:20.165Z,52.15
2022-11-24T05:04:47.867Z,53.33
2022-11-24T05:07:18.689Z,52.95
2022-11-24T05:10:06.040Z,60.40
2022-11-24T05:12:33.290Z,56.75
2022-11-24T05:15:02.604Z,61.63
2022-11-24T05:17:31.515Z,66.72
2022-11-24T05:19:59.160Z,60.47
2022-11-24T05:22:28.225Z,53.70
2022-11-24T05:24:55.540Z,60.97
2022-11-24T05:27:22.795Z,59.10
2022-11-24T05:29:50.066Z,56.42
2022-11-24T05:32:17.045Z,60.25
2022-11-24T05:34:44.840Z,50.10
2022-11-24T05:37:11.783Z,55.92
2022-11-24T05:39:39.307Z,45.47
2022-11-24T05:42:25.970Z,60.40
2022-11-24T05:44:54.071Z,56.00
2022-11-24T05:47:21.699Z,44.10
2022-11-24T05:49:48.940Z,60.78
2022-11-24T05:52:16.501Z,64.10
2022-11-24T05:54:43.720Z,52.45
2022-11-24T05:57:10.590Z,50.03
2022-11-24T05:59:37.775Z,45.70
2022-11-24T06:02:04.827Z,65.28
2022-11-24T06:04:32.627Z,55.40
2022-11-24T06:06:59.930Z,51.65
2022-11-24T06:09:27.121Z,72.70
2022-11-24T06:11:53.999Z,54.67
2022-11-24T06:14:21.651Z,54.90
2022-11-24T06:16:48.530Z,55.80
2022-11-24T06:19:15.756Z,50.53
2022-11-24T06:21:42.708Z,54.58
2022-11-24T06:24:10.248Z,46.70
2022-11-24T06:26:37.150Z,51.17
2022-11-24T06:29:04.708Z,49.92
2022-11-24T06:31:31.677Z,41.30
2022-11-24T06:34:00.767Z,49.10
2022-11-24T06:36:28.112Z,52.00
2022-11-24T06:38:55.478Z,40.88
2022-11-24T06:41:22.469Z,42.53
2022-11-24T06:43:49.800Z,41.33
2022-11-24T06:46:16.815Z,45.83
2022-11-24T06:48:44.200Z,50.65
2022-11-24T06:51:13.059Z,46.83
2022-11-24T06:53:41.295Z,47.80
2022-11-24T06:56:16.556Z,39.92
2022-11-24T06:58:46.663Z,46.00
2022-11-24T07:01:19.193Z,49.00
2022-11-24T07:03:48.211Z,43.28
2022-11-24T07:06:16.274Z,45.15
2022-11-24T07:08:44.246Z,49.00
2022-11-24T07:11:15.625Z,47.15
2022-11-24T07:13:43.803Z,49.75
2022-11-24T07:16:21.199Z,50.50
2022-11-24T07:18:51.230Z,41.60
2022-11-24T07:21:19.616Z,47.75
2022-11-24T07:23:50.785Z,42.97
2022-11-24T07:26:18.181Z,47.97
2022-11-24T07:28:45.820Z,46.15
2022-11-24T07:31:15.394Z,40.88
2022-11-24T07:33:42.681Z,43.17
2022-11-24T07:36:09.810Z,42.30
2022-11-24T07:38:37.050Z,52.10
2022-11-24T07:41:09.632Z,49.30
2022-11-24T07:46:06.638Z,45.72
2022-11-24T07:48:34.308Z,44.95
2022-11-24T07:51:02.922Z,48.78
2022-11-24T07:53:31.279Z,46.72
2022-11-24T07:56:00.434Z,47.35
2022-11-24T07:58:32.573Z,44.85
2022-11-24T08:01:56.574Z,46.92
2022-11-24T08:04:42.382Z,45.22
2022-11-24T08:07:09.783Z,51.72
2022-11-24T08:09:37.067Z,40.33
2022-11-24T08:12:04.331Z,46.90
2022-11-24T08:14:31.799Z,47.08
2022-11-24T08:16:59.089Z,42.13
2022-11-24T08:19:26.682Z,38.78
2022-11-24T08:21:53.665Z,49.13
2022-11-24T08:24:20.920Z,45.20
2022-11-24T08:26:48.088Z,36.47
2022-11-24T08:29:15.410Z,41.47
2022-11-24T08:31:42.445Z,37.97
2022-11-24T08:34:10.655Z,35.17
2022-11-24T08:36:37.575Z,39.45
2022-11-24T08:39:05.180Z,44.95
2022-11-24T08:41:32.178Z,42.65
2022-11-24T08:43:59.436Z,42.63
2022-11-24T08:46:26.365Z,51.42
2022-11-24T08:48:55.061Z,52.35
2022-11-24T08:51:25.106Z,41.05
2022-11-24T08:53:57.089Z,39.90
2022-11-24T08:56:25.110Z,38.85
2022-11-24T08:58:53.867Z,37.55
2022-11-24T09:01:20.926Z,40.72
2022-11-24T09:03:51.057Z,37.50
2022-11-24T09:06:23.025Z,42.80
2022-11-24T09:08:51.714Z,34.77
2022-11-24T09:11:19.043Z,43.22
2022-11-24T09:13:46.579Z,35.50
2022-11-24T09:16:16.512Z,39.15
2022-11-24T09:18:44.151Z,38.47
2022-11-24T09:21:16.043Z,41.63
2022-11-24T09:23:44.520Z,35.17
2022-11-24T09:26:14.215Z,41.78
2022-11-24T09:28:42.203Z,44.60
2022-11-24T09:31:11.995Z,40.42
2022-11-24T09:33:40.672Z,46.55
2022-11-24T09:36:08.324Z,44.95
2022-11-24T09:38:35.640Z,35.85
2022-11-24T09:41:14.717Z,33.05
2022-11-24T09:44:04.503Z,38.75
2022-11-24T09:46:52.614Z,34.45
2022-11-24T09:49:35.306Z,36.55
2022-11-24T09:52:06.295Z,38.95
2022-11-24T09:54:35.761Z,36.55
2022-11-24T09:57:05.016Z,38.25
2022-11-24T09:59:32.951Z,42.33
2022-11-24T10:02:00.755Z,34.75
2022-11-24T10:04:29.587Z,35.58
2022-11-24T10:07:12.184Z,37.90
2022-11-24T10:10:01.264Z,39.08
2022-11-24T10:12:30.908Z,39.22
2022-11-24T10:15:05.934Z,28.52
2022-11-24T10:17:52.270Z,36.67
2022-11-24T10:20:42.236Z,35.85
2022-11-24T10:23:11.908Z,33.55
2022-11-24T10:26:07.896Z,33.88
2022-11-24T10:28:42.950Z,34.83
2022-11-24T10:31:36.486Z,34.95
2022-11-24T10:34:33.080Z,37.40
2022-11-24T10:37:13.682Z,33.65
2022-11-24T10:40:00.201Z,38.80
2022-11-24T10:42:33.662Z,35.63
2022-11-24T10:45:06.355Z,34.13
2022-11-24T10:47:33.788Z,33.63
2022-11-24T10:50:05.881Z,35.15
2022-11-24T10:52:40.732Z,33.42
2022-11-24T10:55:07.893Z,39.83
2022-11-24T10:57:37.576Z,32.88
2022-11-24T11:00:24.492Z,32.70
2022-11-24T11:03:14.922Z,37.97
2022-11-24T11:06:04.457Z,37.25
2022-11-24T11:08:32.883Z,28.05
2022-11-24T11:11:27.266Z,32.72
2022-11-24T11:14:04.522Z,37.45
2022-11-24T11:16:48.419Z,38.88
2022-11-24T11:19:49.480Z,33.65
2022-11-24T11:22:26.167Z,40.85
2022-11-24T11:25:07.535Z,31.58
2022-11-24T11:27:34.710Z,38.47
2022-11-24T11:36:14.726Z,33.50
2022-11-24T11:38:43.100Z,41.75
2022-11-24T11:41:19.342Z,32.08
2022-11-24T11:43:50.512Z,36.83
2022-11-24T11:46:18.182Z,33.33
2022-11-24T11:48:47.343Z,40.45
2022-11-24T11:52:01.853Z,37.85
2022-11-24T11:57:11.947Z,33.65
2022-11-24T12:00:06.403Z,37.42
2022-11-24T12:03:00.902Z,44.35
2022-11-24T12:06:01.057Z,44.35
2022-11-24T12:08:28.233Z,39.08
2022-11-24T12:11:12.172Z,38.83
2022-11-24T12:13:47.612Z,34.70
2022-11-24T12:16:29.788Z,33.75
2022-11-24T12:19:45.665Z,32.10
2022-11-24T12:23:14.002Z,41.47
2022-11-24T12:25:48.215Z,37.28
2022-11-24T12:28:43.959Z,35.70
2022-11-24T12:31:48.028Z,34.08
2022-11-24T12:34:40.739Z,38.97
2022-11-24T12:37:15.777Z,28.20
2022-11-24T12:39:45.429Z,33.17
2022-11-24T12:42:38.059Z,37.10
2022-11-24T12:45:15.043Z,30.52
2022-11-24T12:48:03.751Z,30.75
2022-11-24T12:50:37.229Z,29.63
2022-11-24T12:53:24.245Z,29.67
2022-11-24T12:55:52.215Z,33.55
2022-11-24T12:58:45.757Z,29.00
2022-11-24T13:01:36.838Z,27.05
2022-11-24T13:04:30.545Z,29.27
2022-11-24T13:07:09.224Z,33.47
2022-11-24T13:09:37.316Z,35.53
2022-11-24T13:12:15.100Z,34.72
2022-11-24T13:14:44.423Z,30.65
2022-11-24T13:18:01.199Z,31.58
2022-11-24T13:20:31.798Z,29.02
2022-11-24T13:23:03.899Z,28.45
2022-11-24T13:25:33.874Z,33.20
2022-11-24T13:28:06.624Z,34.35
2022-11-24T13:30:33.905Z,33.22
2022-11-24T13:33:16.916Z,29.23
2022-11-24T13:36:22.697Z,30.25
2022-11-24T13:38:49.920Z,30.17
2022-11-24T13:41:33.409Z,34.45
2022-11-24T13:44:15.650Z,28.80
2022-11-24T13:47:06.398Z,37.10
2022-11-24T13:49:38.594Z,26.83
2022-11-24T13:52:40.160Z,33.08
2022-11-24T13:55:12.918Z,30.33
2022-11-24T13:57:41.072Z,31.23
2022-11-24T14:00:35.438Z,33.38
2022-11-24T14:03:14.882Z,30.23
2022-11-24T14:05:48.990Z,35.72
2022-11-24T14:08:30.352Z,30.13
2022-11-24T14:11:00.178Z,40.95
2022-11-24T14:13:30.055Z,38.20
2022-11-24T14:16:14.753Z,36.05
2022-11-24T14:18:44.198Z,38.75
2022-11-24T14:21:20.487Z,40.80
2022-11-24T14:23:52.121Z,35.28
2022-11-24T14:26:25.865Z,36.90
2022-11-24T14:28:54.224Z,38.20
2022-11-24T14:31:24.216Z,38.42
2022-11-24T14:34:07.251Z,40.90
2022-11-24T14:36:34.527Z,44.30
2022-11-24T14:39:01.699Z,47.80
2022-11-24T14:41:28.779Z,47.55
2022-11-24T14:44:19.603Z,46.38
2022-11-24T14:46:47.100Z,40.42
2022-11-24T14:49:22.986Z,49.70
2022-11-24T14:52:00.489Z,45.85
2022-11-24T14:54:28.545Z,44.03
2022-11-24T14:57:04.525Z,48.30
2022-11-24T14:59:38.310Z,45.67
2022-11-24T15:02:41.286Z,40.65
2022-11-24T15:05:08.756Z,54.45
2022-11-24T15:07:39.353Z,51.88
2022-11-24T15:10:19.267Z,49.47
2022-11-24T15:12:54.511Z,46.28
2022-11-24T15:15:29.662Z,48.72
2022-11-24T15:17:58.281Z,47.88
2022-11-24T15:20:37.186Z,47.50
2022-11-24T15:23:23.683Z,42.78
2022-11-24T15:25:57.235Z,37.85
2022-11-24T15:28:26.082Z,45.45
2022-11-24T15:30:55.519Z,52.63
2022-11-24T15:33:23.622Z,57.03
2022-11-24T15:35:51.165Z,61.58
2022-11-24T15:38:18.400Z,58.03
2022-11-24T15:40:48.117Z,61.55
2022-11-24T15:43:34.841Z,71.45
2022-11-24T15:46:03.649Z,63.35
2022-11-24T15:48:30.905Z,59.58
2022-11-24T15:50:59.637Z,59.65
2022-11-24T15:53:36.027Z,63.65
2022-11-24T15:56:05.922Z,58.70
2022-11-24T15:58:32.820Z,86.10
2022-11-24T16:01:00.404Z,78.55
2022-11-24T16:06:24.576Z,53.83
2022-11-24T16:08:53.209Z,50.95
2022-11-24T16:11:21.511Z,57.22
2022-11-24T16:13:52.408Z,60.90
2022-11-24T16:16:21.306Z,59.65
2022-11-24T16:18:48.574Z,74.50
2022-11-24T16:21:16.073Z,55.75
2022-11-24T16:23:43.092Z,61.75
2022-11-24T16:26:10.455Z,67.45
2022-11-24T16:28:37.387Z,57.20
2022-11-24T16:31:04.589Z,72.40
2022-11-24T16:33:31.773Z,65.20
2022-11-24T16:35:59.082Z,59.13
2022-11-24T16:38:26.114Z,60.70
2022-11-24T16:40:56.279Z,57.45
2022-11-24T16:43:24.690Z,37.85
2022-11-24T16:46:09.286Z,41.88
2022-11-24T16:48:36.818Z,104.55
2022-11-24T16:51:08.894Z,137.05
2022-11-24T16:53:36.373Z,58.47
2022-11-24T16:56:03.912Z,53.22
2022-11-24T16:58:30.837Z,57.05
2022-11-24T17:01:10.423Z,80.80
2022-11-24T17:03:38.826Z,57.03
2022-11-24T17:06:08.647Z,50.70
2022-11-24T17:08:37.068Z,45.67
2022-11-24T17:11:11.462Z,46.05
2022-11-24T17:13:39.081Z,50.28
2022-11-24T17:16:08.157Z,51.47
2022-11-24T17:18:36.066Z,42.30
2022-11-24T17:21:09.127Z,53.05
2022-11-24T17:23:37.553Z,45.72
2022-11-24T17:26:06.929Z,53.10
2022-11-24T17:28:35.457Z,54.08
2022-11-24T17:31:08.948Z,50.80
2022-11-24T17:33:36.532Z,58.85
2022-11-24T17:36:05.920Z,52.15
2022-11-24T17:38:34.346Z,51.35
2022-11-24T17:41:01.400Z,52.22
2022-11-24T17:43:28.889Z,68.47
2022-11-24T17:45:58.027Z,44.85
2022-11-24T17:48:25.568Z,50.15
2022-11-24T17:51:07.836Z,45.55
2022-11-24T17:53:39.264Z,45.33
2022-11-24T17:56:07.690Z,50.63
2022-11-24T17:58:41.295Z,52.22
2022-11-24T18:01:10.731Z,65.13
2022-11-24T18:03:41.974Z,46.05
2022-11-24T18:06:11.610Z,52.15
2022-11-24T18:08:41.498Z,52.15
2022-11-24T18:11:11.454Z,49.03
2022-11-24T18:13:59.833Z,48.95
2022-11-24T18:16:28.210Z,54.38
2022-11-24T18:19:07.675Z,54.50
2022-11-24T18:21:36.355Z,54.25
2022-11-24T18:24:03.925Z,55.95
2022-11-24T18:26:30.931Z,53.35
2022-11-24T18:28:58.127Z,55.40
2022-11-24T18:31:26.287Z,47.13
2022-11-24T18:33:53.820Z,53.20
2022-11-24T18:36:28.364Z,57.50
2022-11-24T18:39:00.220Z,60.20
2022-11-24T18:41:27.377Z,56.47
2022-11-24T18:43:54.573Z,55.90
2022-11-24T18:46:21.695Z,50.63
2022-11-24T18:48:51.445Z,53.38
2022-11-24T18:51:18.664Z,64.57
2022-11-24T18:53:46.962Z,58.47
2022-11-24T18:56:16.324Z,56.08
2022-11-24T18:58:44.359Z,58.42
2022-11-24T19:01:17.765Z,53.60
2022-11-24T19:03:49.004Z,52.72
2022-11-24T19:06:20.956Z,60.78
2022-11-24T19:08:48.820Z,52.20
2022-11-24T19:11:25.939Z,61.80
2022-11-24T19:13:53.238Z,64.78
2022-11-24T19:16:21.603Z,53.78
2022-11-24T19:18:54.018Z,60.03
2022-11-24T19:21:22.439Z,63.20
2022-11-24T19:23:50.007Z,74.32
2022-11-24T19:26:17.198Z,72.35
2022-11-24T19:28:44.690Z,100.78
2022-11-24T19:31:15.234Z,84.72
2022-11-24T19:33:43.416Z,58.45
2022-11-24T19:36:19.113Z,62.78
2022-11-24T19:38:54.821Z,62.03
2022-11-24T19:41:25.293Z,61.33
2022-11-24T19:43:55.513Z,66.45
2022-11-24T19:46:26.520Z,69.53
2022-11-24T19:48:55.455Z,64.05
2022-11-24T19:51:25.417Z,66.72
2022-11-24T19:53:53.879Z,77.28
2022-11-24T19:56:23.217Z,57.42
2022-11-24T19:58:51.679Z,59.92
2022-11-24T20:01:27.602Z,65.20
2022-11-24T20:04:00.373Z,52.33
2022-11-24T20:06:34.504Z,71.22
2022-11-24T20:09:01.900Z,52.35
2022-11-24T20:11:29.651Z,64.50
2022-11-24T20:13:57.911Z,63.00
2022-11-24T20:16:29.536Z,70.20
2022-11-24T20:19:02.086Z,58.42
2022-11-24T20:21:31.516Z,62.40
2022-11-24T20:24:01.960Z,67.78
2022-11-24T20:26:34.863Z,43.75
2022-11-24T20:29:02.543Z,60.38
2022-11-24T20:31:35.563Z,60.88
2022-11-24T20:34:05.030Z,53.92
2022-11-24T20:36:33.416Z,54.83
2022-11-24T20:39:03.450Z,63.85
2022-11-24T20:41:33.835Z,48.63
2022-11-24T20:44:05.026Z,64.00
2022-11-24T20:46:33.383Z,56.28
2022-11-24T20:49:01.182Z,62.97
2022-11-24T20:51:33.218Z,66.65
2022-11-24T20:54:03.947Z,64.90
2022-11-24T20:56:33.540Z,70.65
2022-11-24T20:59:01.705Z,66.93
2022-11-24T21:01:38.711Z,76.80
2022-11-24T21:04:11.147Z,57.15
2022-11-24T21:06:38.748Z,85.15
2022-11-24T21:09:07.341Z,75.35
2022-11-24T21:11:34.923Z,73.93
2022-11-24T21:14:02.402Z,78.72
2022-11-24T21:16:34.929Z,84.78
2022-11-24T21:19:06.020Z,73.95
2022-11-24T21:21:35.271Z,89.20
2022-11-24T21:24:12.325Z,87.28
2022-11-24T21:26:41.253Z,73.32
2022-11-24T21:29:10.374Z,76.85
2022-11-24T21:31:38.548Z,85.20
2022-11-24T21:34:07.219Z,81.75
2022-11-24T21:36:35.163Z,81.95
2022-11-24T21:39:03.731Z,82.47
2022-11-24T21:41:33.361Z,75.25
2022-11-24T21:44:01.379Z,74.30
2022-11-24T21:46:39.012Z,89.13
2022-11-24T21:49:07.905Z,69.82
2022-11-24T21:51:34.885Z,64.30
2022-11-24T21:54:02.108Z,68.65
2022-11-24T21:56:29.067Z,69.90
2022-11-24T21:58:58.082Z,78.43
2022-11-24T22:01:28.124Z,79.70
2022-11-24T22:03:56.156Z,77.03
2022-11-24T22:06:23.618Z,74.57
2022-11-24T22:08:51.090Z,77.63
2022-11-24T22:11:23.296Z,87.95
2022-11-24T22:13:51.673Z,95.38
2022-11-24T22:16:23.814Z,84.90
2022-11-24T22:18:51.664Z,82.22
2022-11-24T22:21:22.401Z,86.68
2022-11-24T22:23:51.945Z,74.85
2022-11-24T22:26:21.521Z,72.78
2022-11-24T22:28:49.364Z,70.32
2022-11-24T22:31:19.409Z,76.93
2022-11-24T22:33:47.133Z,78.10
2022-11-24T22:36:16.018Z,88.03
2022-11-24T22:38:43.691Z,71.50
2022-11-24T22:41:16.077Z,72.72
2022-11-24T22:43:44.354Z,87.90
2022-11-24T22:46:19.940Z,90.38
2022-11-24T22:48:49.929Z,90.28
2022-11-24T22:51:19.428Z,76.22
2022-11-24T22:53:48.673Z,71.40
2022-11-24T22:56:16.680Z,70.90
2022-11-24T22:58:44.312Z,79.03
2022-11-24T23:01:23.209Z,79.85
2022-11-24T23:03:53.799Z,78.78
2022-11-24T23:06:23.818Z,65.82
2022-11-24T23:08:52.061Z,82.57
2022-11-24T23:11:24.666Z,89.25
2022-11-24T23:14:00.354Z,81.90
2022-11-24T23:16:27.707Z,73.40
2022-11-24T23:18:55.730Z,73.32
2022-11-24T23:21:25.508Z,85.35
2022-11-24T23:23:53.309Z,76.82
2022-11-24T23:26:23.606Z,84.97
2022-11-24T23:28:51.325Z,74.72
2022-11-24T23:31:21.510Z,74.50
2022-11-24T23:33:49.079Z,85.13
2022-11-24T23:36:18.188Z,87.80
2022-11-24T23:38:46.445Z,54.83
2022-11-24T23:41:16.264Z,71.22
2022-11-24T23:43:43.860Z,77.25
2022-11-24T23:46:20.518Z,87.85
2022-11-24T23:48:49.594Z,96.53
2022-11-24T23:51:27.951Z,79.60
2022-11-24T23:53:55.775Z,67.88
2022-11-24T23:56:26.177Z,80.43
2022-11-24T23:58:53.622Z,92.97
